sensor_id;sensor_type;location;lat;lon;timestamp;temperature;humidity
70269;DHT22;58514;48.398;-4.274;2022-07-17T00:00:46;22.70;51.30
70269;DHT22;58514;48.398;-4.274;2022-07-17T00:03:13;22.70;51.60
70269;DHT22;58514;48.398;-4.274;2022-07-17T00:05:40;22.70;51.40
70269;DHT22;58514;48.398;-4.274;2022-07-17T00:08:06;22.60;51.50
70269;DHT22;58514;48.398;-4.274;2022-07-17T00:10:33;22.60;51.60
70269;DHT22;58514;48.398;-4.274;2022-07-17T00:12:59;22.60;51.60
70269;DHT22;58514;48.398;-4.274;2022-07-17T00:15:25;22.60;51.30
70269;DHT22;58514;48.398;-4.274;2022-07-17T00:17:50;22.60;51.30
70269;DHT22;58514;48.398;-4.274;2022-07-17T00:20:16;22.60;51.40
70269;DHT22;58514;48.398;-4.274;2022-07-17T00:22:42;22.60;51.50
70269;DHT22;58514;48.398;-4.274;2022-07-17T00:25:09;22.60;51.30
70269;DHT22;58514;48.398;-4.274;2022-07-17T00:27:36;22.60;51.90
70269;DHT22;58514;48.398;-4.274;2022-07-17T00:30:03;22.60;51.50
70269;DHT22;58514;48.398;-4.274;2022-07-17T00:32:28;22.60;51.30
70269;DHT22;58514;48.398;-4.274;2022-07-17T00:34:54;22.60;51.30
70269;DHT22;58514;48.398;-4.274;2022-07-17T00:37:20;22.50;51.40
70269;DHT22;58514;48.398;-4.274;2022-07-17T00:39:46;22.50;51.70
70269;DHT22;58514;48.398;-4.274;2022-07-17T00:42:13;22.60;51.90
70269;DHT22;58514;48.398;-4.274;2022-07-17T00:44:40;22.60;51.70
70269;DHT22;58514;48.398;-4.274;2022-07-17T00:47:20;22.60;51.60
70269;DHT22;58514;48.398;-4.274;2022-07-17T00:49:46;22.60;51.70
70269;DHT22;58514;48.398;-4.274;2022-07-17T00:52:13;22.60;51.80
70269;DHT22;58514;48.398;-4.274;2022-07-17T00:54:41;22.50;51.70
70269;DHT22;58514;48.398;-4.274;2022-07-17T00:57:09;22.50;51.50
70269;DHT22;58514;48.398;-4.274;2022-07-17T00:59:36;22.50;51.60
70269;DHT22;58514;48.398;-4.274;2022-07-17T01:02:06;22.50;51.70
70269;DHT22;58514;48.398;-4.274;2022-07-17T01:04:33;22.40;51.60
70269;DHT22;58514;48.398;-4.274;2022-07-17T01:06:59;22.50;51.80
70269;DHT22;58514;48.398;-4.274;2022-07-17T01:09:28;22.50;51.70
70269;DHT22;58514;48.398;-4.274;2022-07-17T01:11:55;22.50;52.50
70269;DHT22;58514;48.398;-4.274;2022-07-17T01:14:22;22.40;51.80
70269;DHT22;58514;48.398;-4.274;2022-07-17T01:16:49;22.50;52.00
70269;DHT22;58514;48.398;-4.274;2022-07-17T01:19:15;22.40;51.80
70269;DHT22;58514;48.398;-4.274;2022-07-17T01:21:43;22.40;52.00
70269;DHT22;58514;48.398;-4.274;2022-07-17T01:24:09;22.40;51.60
70269;DHT22;58514;48.398;-4.274;2022-07-17T01:26:35;22.40;51.50
70269;DHT22;58514;48.398;-4.274;2022-07-17T01:29:01;22.40;51.70
70269;DHT22;58514;48.398;-4.274;2022-07-17T01:31:28;22.40;51.50
70269;DHT22;58514;48.398;-4.274;2022-07-17T01:33:54;22.40;51.80
70269;DHT22;58514;48.398;-4.274;2022-07-17T01:36:24;22.30;52.00
70269;DHT22;58514;48.398;-4.274;2022-07-17T01:38:50;22.40;51.50
70269;DHT22;58514;48.398;-4.274;2022-07-17T01:41:16;22.30;51.60
70269;DHT22;58514;48.398;-4.274;2022-07-17T01:43:41;22.30;51.50
70269;DHT22;58514;48.398;-4.274;2022-07-17T01:46:07;22.30;51.60
70269;DHT22;58514;48.398;-4.274;2022-07-17T01:48:33;22.30;51.60
70269;DHT22;58514;48.398;-4.274;2022-07-17T01:50:59;22.30;51.40
70269;DHT22;58514;48.398;-4.274;2022-07-17T01:53:25;22.30;51.30
70269;DHT22;58514;48.398;-4.274;2022-07-17T01:55:50;22.30;51.90
70269;DHT22;58514;48.398;-4.274;2022-07-17T01:58:16;22.30;51.20
70269;DHT22;58514;48.398;-4.274;2022-07-17T02:00:42;22.30;51.00
70269;DHT22;58514;48.398;-4.274;2022-07-17T02:03:08;22.30;51.00
70269;DHT22;58514;48.398;-4.274;2022-07-17T02:05:34;22.30;50.90
70269;DHT22;58514;48.398;-4.274;2022-07-17T02:07:59;22.40;50.90
70269;DHT22;58514;48.398;-4.274;2022-07-17T02:10:25;22.30;50.70
70269;DHT22;58514;48.398;-4.274;2022-07-17T02:12:51;22.30;50.50
70269;DHT22;58514;48.398;-4.274;2022-07-17T02:15:17;22.30;50.50
70269;DHT22;58514;48.398;-4.274;2022-07-17T02:17:43;22.30;50.50
70269;DHT22;58514;48.398;-4.274;2022-07-17T02:20:10;22.30;50.50
70269;DHT22;58514;48.398;-4.274;2022-07-17T02:22:36;22.30;50.40
70269;DHT22;58514;48.398;-4.274;2022-07-17T02:25:03;22.30;50.50
70269;DHT22;58514;48.398;-4.274;2022-07-17T02:27:31;22.30;50.50
70269;DHT22;58514;48.398;-4.274;2022-07-17T02:29:56;22.20;50.50
70269;DHT22;58514;48.398;-4.274;2022-07-17T02:32:22;22.20;50.70
70269;DHT22;58514;48.398;-4.274;2022-07-17T02:34:48;22.20;50.40
70269;DHT22;58514;48.398;-4.274;2022-07-17T02:37:14;22.20;50.50
70269;DHT22;58514;48.398;-4.274;2022-07-17T02:39:40;22.10;50.60
70269;DHT22;58514;48.398;-4.274;2022-07-17T02:42:21;22.10;50.90
70269;DHT22;58514;48.398;-4.274;2022-07-17T02:44:47;22.00;50.60
70269;DHT22;58514;48.398;-4.274;2022-07-17T02:50:10;22.00;50.60
70269;DHT22;58514;48.398;-4.274;2022-07-17T02:52:36;22.00;50.70
70269;DHT22;58514;48.398;-4.274;2022-07-17T02:55:02;21.90;50.70
70269;DHT22;58514;48.398;-4.274;2022-07-17T02:57:28;21.90;50.80
70269;DHT22;58514;48.398;-4.274;2022-07-17T02:59:53;21.90;50.90
70269;DHT22;58514;48.398;-4.274;2022-07-17T03:02:19;21.90;50.90
70269;DHT22;58514;48.398;-4.274;2022-07-17T03:04:45;21.90;50.90
70269;DHT22;58514;48.398;-4.274;2022-07-17T03:07:11;21.90;51.20
70269;DHT22;58514;48.398;-4.274;2022-07-17T03:09:37;21.80;51.00
70269;DHT22;58514;48.398;-4.274;2022-07-17T03:12:02;21.80;51.00
70269;DHT22;58514;48.398;-4.274;2022-07-17T03:14:28;21.80;51.00
70269;DHT22;58514;48.398;-4.274;2022-07-17T03:16:54;21.80;50.90
70269;DHT22;58514;48.398;-4.274;2022-07-17T03:19:19;21.70;50.60
70269;DHT22;58514;48.398;-4.274;2022-07-17T03:21:45;21.70;50.60
70269;DHT22;58514;48.398;-4.274;2022-07-17T03:24:11;21.70;50.30
70269;DHT22;58514;48.398;-4.274;2022-07-17T03:26:36;21.70;50.40
70269;DHT22;58514;48.398;-4.274;2022-07-17T03:29:02;21.70;50.30
70269;DHT22;58514;48.398;-4.274;2022-07-17T03:31:28;21.70;50.20
70269;DHT22;58514;48.398;-4.274;2022-07-17T03:33:53;21.70;50.20
70269;DHT22;58514;48.398;-4.274;2022-07-17T03:36:19;21.70;50.10
70269;DHT22;58514;48.398;-4.274;2022-07-17T03:38:45;21.70;50.20
70269;DHT22;58514;48.398;-4.274;2022-07-17T03:41:11;21.80;50.00
70269;DHT22;58514;48.398;-4.274;2022-07-17T03:43:37;21.80;50.00
70269;DHT22;58514;48.398;-4.274;2022-07-17T03:46:03;21.80;50.20
70269;DHT22;58514;48.398;-4.274;2022-07-17T03:48:29;21.80;50.30
70269;DHT22;58514;48.398;-4.274;2022-07-17T03:50:54;21.80;50.50
70269;DHT22;58514;48.398;-4.274;2022-07-17T03:53:20;21.80;50.50
70269;DHT22;58514;48.398;-4.274;2022-07-17T03:55:46;21.80;50.50
70269;DHT22;58514;48.398;-4.274;2022-07-17T03:58:11;21.80;50.50
70269;DHT22;58514;48.398;-4.274;2022-07-17T04:00:37;21.80;50.40
70269;DHT22;58514;48.398;-4.274;2022-07-17T04:03:03;21.80;50.30
70269;DHT22;58514;48.398;-4.274;2022-07-17T04:05:28;21.70;50.10
70269;DHT22;58514;48.398;-4.274;2022-07-17T04:07:54;21.70;50.10
70269;DHT22;58514;48.398;-4.274;2022-07-17T04:10:20;21.70;50.00
70269;DHT22;58514;48.398;-4.274;2022-07-17T04:12:45;21.70;50.00
70269;DHT22;58514;48.398;-4.274;2022-07-17T04:15:13;21.70;49.90
70269;DHT22;58514;48.398;-4.274;2022-07-17T04:17:59;21.70;49.80
70269;DHT22;58514;48.398;-4.274;2022-07-17T04:20:24;21.70;49.60
70269;DHT22;58514;48.398;-4.274;2022-07-17T04:22:50;21.70;49.30
70269;DHT22;58514;48.398;-4.274;2022-07-17T04:25:16;21.70;48.80
70269;DHT22;58514;48.398;-4.274;2022-07-17T04:27:42;21.70;49.20
70269;DHT22;58514;48.398;-4.274;2022-07-17T04:30:08;21.70;49.00
70269;DHT22;58514;48.398;-4.274;2022-07-17T04:32:33;21.70;49.00
70269;DHT22;58514;48.398;-4.274;2022-07-17T04:34:59;21.70;48.80
70269;DHT22;58514;48.398;-4.274;2022-07-17T04:37:25;21.70;49.00
70269;DHT22;58514;48.398;-4.274;2022-07-17T04:39:50;21.70;49.00
70269;DHT22;58514;48.398;-4.274;2022-07-17T04:42:16;21.70;49.00
70269;DHT22;58514;48.398;-4.274;2022-07-17T04:44:42;21.80;48.90
70269;DHT22;58514;48.398;-4.274;2022-07-17T04:47:07;21.70;48.80
70269;DHT22;58514;48.398;-4.274;2022-07-17T04:49:34;21.70;48.80
70269;DHT22;58514;48.398;-4.274;2022-07-17T04:51:59;21.70;48.60
70269;DHT22;58514;48.398;-4.274;2022-07-17T04:54:25;21.80;48.60
70269;DHT22;58514;48.398;-4.274;2022-07-17T04:56:50;21.70;48.50
70269;DHT22;58514;48.398;-4.274;2022-07-17T04:59:16;21.70;48.60
70269;DHT22;58514;48.398;-4.274;2022-07-17T05:01:42;21.70;48.40
70269;DHT22;58514;48.398;-4.274;2022-07-17T05:04:07;21.70;48.20
70269;DHT22;58514;48.398;-4.274;2022-07-17T05:06:33;21.70;48.60
70269;DHT22;58514;48.398;-4.274;2022-07-17T05:08:59;21.80;48.50
70269;DHT22;58514;48.398;-4.274;2022-07-17T05:11:25;21.80;48.50
70269;DHT22;58514;48.398;-4.274;2022-07-17T05:13:50;21.80;48.50
70269;DHT22;58514;48.398;-4.274;2022-07-17T05:16:16;21.80;48.30
70269;DHT22;58514;48.398;-4.274;2022-07-17T05:18:42;21.80;48.20
70269;DHT22;58514;48.398;-4.274;2022-07-17T05:21:07;21.80;48.30
70269;DHT22;58514;48.398;-4.274;2022-07-17T05:23:33;21.80;48.40
70269;DHT22;58514;48.398;-4.274;2022-07-17T05:25:59;21.80;48.50
70269;DHT22;58514;48.398;-4.274;2022-07-17T05:41:26;21.80;48.00
70269;DHT22;58514;48.398;-4.274;2022-07-17T05:43:52;22.00;48.20
70269;DHT22;58514;48.398;-4.274;2022-07-17T05:46:18;22.10;48.20
70269;DHT22;58514;48.398;-4.274;2022-07-17T05:48:44;22.10;48.10
70269;DHT22;58514;48.398;-4.274;2022-07-17T05:51:09;22.10;47.90
70269;DHT22;58514;48.398;-4.274;2022-07-17T05:53:35;22.10;48.00
70269;DHT22;58514;48.398;-4.274;2022-07-17T05:56:01;22.10;47.90
70269;DHT22;58514;48.398;-4.274;2022-07-17T05:58:26;22.20;48.00
70269;DHT22;58514;48.398;-4.274;2022-07-17T06:00:52;22.20;48.20
70269;DHT22;58514;48.398;-4.274;2022-07-17T06:03:18;22.20;48.20
70269;DHT22;58514;48.398;-4.274;2022-07-17T06:05:44;22.20;48.20
70269;DHT22;58514;48.398;-4.274;2022-07-17T06:08:10;22.20;48.40
70269;DHT22;58514;48.398;-4.274;2022-07-17T06:10:35;22.20;48.30
70269;DHT22;58514;48.398;-4.274;2022-07-17T06:13:03;22.30;48.30
70269;DHT22;58514;48.398;-4.274;2022-07-17T06:15:29;22.30;49.00
70269;DHT22;58514;48.398;-4.274;2022-07-17T06:17:54;22.30;48.20
70269;DHT22;58514;48.398;-4.274;2022-07-17T06:20:20;22.30;48.30
70269;DHT22;58514;48.398;-4.274;2022-07-17T06:22:46;22.40;48.10
70269;DHT22;58514;48.398;-4.274;2022-07-17T06:25:12;22.40;48.30
70269;DHT22;58514;48.398;-4.274;2022-07-17T06:27:42;22.40;48.00
70269;DHT22;58514;48.398;-4.274;2022-07-17T06:30:09;22.50;48.20
70269;DHT22;58514;48.398;-4.274;2022-07-17T06:32:35;22.50;48.10
70269;DHT22;58514;48.398;-4.274;2022-07-17T06:35:01;22.50;47.80
70269;DHT22;58514;48.398;-4.274;2022-07-17T06:37:27;22.60;47.90
70269;DHT22;58514;48.398;-4.274;2022-07-17T06:39:52;22.60;47.80
70269;DHT22;58514;48.398;-4.274;2022-07-17T06:42:18;22.70;47.70
70269;DHT22;58514;48.398;-4.274;2022-07-17T06:44:44;22.70;47.70
70269;DHT22;58514;48.398;-4.274;2022-07-17T06:47:09;22.70;47.70
70269;DHT22;58514;48.398;-4.274;2022-07-17T06:49:35;22.70;47.30
70269;DHT22;58514;48.398;-4.274;2022-07-17T06:52:01;22.80;47.30
70269;DHT22;58514;48.398;-4.274;2022-07-17T06:54:26;22.80;47.40
70269;DHT22;58514;48.398;-4.274;2022-07-17T06:56:53;22.90;47.60
70269;DHT22;58514;48.398;-4.274;2022-07-17T06:59:19;22.90;47.20
70269;DHT22;58514;48.398;-4.274;2022-07-17T07:01:45;23.00;47.10
70269;DHT22;58514;48.398;-4.274;2022-07-17T07:04:11;23.00;47.40
70269;DHT22;58514;48.398;-4.274;2022-07-17T07:06:37;23.10;46.70
70269;DHT22;58514;48.398;-4.274;2022-07-17T07:09:03;23.10;47.70
70269;DHT22;58514;48.398;-4.274;2022-07-17T07:11:29;23.10;46.30
70269;DHT22;58514;48.398;-4.274;2022-07-17T07:13:55;23.20;46.60
70269;DHT22;58514;48.398;-4.274;2022-07-17T07:16:20;23.20;46.60
70269;DHT22;58514;48.398;-4.274;2022-07-17T07:18:47;23.30;46.60
70269;DHT22;58514;48.398;-4.274;2022-07-17T07:21:12;23.30;46.70
70269;DHT22;58514;48.398;-4.274;2022-07-17T07:23:38;23.40;46.50
70269;DHT22;58514;48.398;-4.274;2022-07-17T07:26:04;23.40;46.40
70269;DHT22;58514;48.398;-4.274;2022-07-17T07:28:30;23.50;46.70
70269;DHT22;58514;48.398;-4.274;2022-07-17T07:30:56;23.50;46.30
70269;DHT22;58514;48.398;-4.274;2022-07-17T07:33:21;23.60;46.50
70269;DHT22;58514;48.398;-4.274;2022-07-17T07:35:47;23.60;46.10
70269;DHT22;58514;48.398;-4.274;2022-07-17T07:38:13;23.60;46.10
70269;DHT22;58514;48.398;-4.274;2022-07-17T07:40:38;23.70;45.90
70269;DHT22;58514;48.398;-4.274;2022-07-17T07:43:04;23.70;46.00
70269;DHT22;58514;48.398;-4.274;2022-07-17T07:45:30;23.80;46.30
70269;DHT22;58514;48.398;-4.274;2022-07-17T07:47:58;23.90;45.90
70269;DHT22;58514;48.398;-4.274;2022-07-17T07:50:25;23.90;46.00
70269;DHT22;58514;48.398;-4.274;2022-07-17T07:52:51;23.90;45.50
70269;DHT22;58514;48.398;-4.274;2022-07-17T07:55:17;24.00;45.50
70269;DHT22;58514;48.398;-4.274;2022-07-17T07:57:43;24.10;45.50
70269;DHT22;58514;48.398;-4.274;2022-07-17T08:00:10;24.10;45.70
70269;DHT22;58514;48.398;-4.274;2022-07-17T08:02:36;24.10;45.40
70269;DHT22;58514;48.398;-4.274;2022-07-17T08:05:03;24.20;45.70
70269;DHT22;58514;48.398;-4.274;2022-07-17T08:07:29;24.20;45.10
70269;DHT22;58514;48.398;-4.274;2022-07-17T08:09:56;24.30;45.50
70269;DHT22;58514;48.398;-4.274;2022-07-17T08:12:22;24.40;45.00
70269;DHT22;58514;48.398;-4.274;2022-07-17T08:14:48;24.40;45.30
70269;DHT22;58514;48.398;-4.274;2022-07-17T08:17:14;24.50;45.30
70269;DHT22;58514;48.398;-4.274;2022-07-17T08:19:39;24.60;45.00
70269;DHT22;58514;48.398;-4.274;2022-07-17T08:22:05;24.60;45.00
70269;DHT22;58514;48.398;-4.274;2022-07-17T08:24:31;24.60;44.80
70269;DHT22;58514;48.398;-4.274;2022-07-17T08:26:57;24.70;44.20
70269;DHT22;58514;48.398;-4.274;2022-07-17T08:29:22;24.70;44.50
70269;DHT22;58514;48.398;-4.274;2022-07-17T08:31:48;24.80;44.50
70269;DHT22;58514;48.398;-4.274;2022-07-17T08:34:15;24.80;44.60
70269;DHT22;58514;48.398;-4.274;2022-07-17T08:36:41;24.90;44.70
70269;DHT22;58514;48.398;-4.274;2022-07-17T08:39:07;24.90;44.50
70269;DHT22;58514;48.398;-4.274;2022-07-17T08:41:37;25.00;44.70
70269;DHT22;58514;48.398;-4.274;2022-07-17T08:44:07;25.10;44.40
70269;DHT22;58514;48.398;-4.274;2022-07-17T08:46:35;25.10;43.90
70269;DHT22;58514;48.398;-4.274;2022-07-17T08:49:03;25.10;44.40
70269;DHT22;58514;48.398;-4.274;2022-07-17T08:51:29;25.20;44.50
70269;DHT22;58514;48.398;-4.274;2022-07-17T08:53:56;25.30;45.50
70269;DHT22;58514;48.398;-4.274;2022-07-17T08:56:22;25.40;45.10
70269;DHT22;58514;48.398;-4.274;2022-07-17T08:58:48;25.50;45.10
70269;DHT22;58514;48.398;-4.274;2022-07-17T09:01:14;25.60;45.30
70269;DHT22;58514;48.398;-4.274;2022-07-17T09:03:40;25.70;45.10
70269;DHT22;58514;48.398;-4.274;2022-07-17T09:06:20;25.70;45.20
70269;DHT22;58514;48.398;-4.274;2022-07-17T09:08:46;25.80;45.40
70269;DHT22;58514;48.398;-4.274;2022-07-17T09:11:12;25.90;45.00
70269;DHT22;58514;48.398;-4.274;2022-07-17T09:13:44;26.10;45.50
70269;DHT22;58514;48.398;-4.274;2022-07-17T09:16:11;26.20;44.40
70269;DHT22;58514;48.398;-4.274;2022-07-17T09:18:50;26.20;44.50
70269;DHT22;58514;48.398;-4.274;2022-07-17T09:21:24;26.30;44.50
70269;DHT22;58514;48.398;-4.274;2022-07-17T09:24:00;26.40;44.10
70269;DHT22;58514;48.398;-4.274;2022-07-17T09:26:27;26.40;44.60
70269;DHT22;58514;48.398;-4.274;2022-07-17T09:28:53;26.50;43.40
70269;DHT22;58514;48.398;-4.274;2022-07-17T09:31:29;26.50;43.40
70269;DHT22;58514;48.398;-4.274;2022-07-17T09:33:56;26.60;43.10
70269;DHT22;58514;48.398;-4.274;2022-07-17T09:36:21;26.70;44.00
70269;DHT22;58514;48.398;-4.274;2022-07-17T09:38:49;26.80;44.00
70269;DHT22;58514;48.398;-4.274;2022-07-17T09:41:18;26.90;41.80
70269;DHT22;58514;48.398;-4.274;2022-07-17T09:43:55;26.90;41.90
70269;DHT22;58514;48.398;-4.274;2022-07-17T09:46:29;27.00;41.80
70269;DHT22;58514;48.398;-4.274;2022-07-17T09:49:00;27.00;42.60
70269;DHT22;58514;48.398;-4.274;2022-07-17T09:51:35;27.10;41.20
70269;DHT22;58514;48.398;-4.274;2022-07-17T09:54:04;27.20;42.30
70269;DHT22;58514;48.398;-4.274;2022-07-17T09:56:33;27.30;42.10
70269;DHT22;58514;48.398;-4.274;2022-07-17T09:59:10;27.30;41.30
70269;DHT22;58514;48.398;-4.274;2022-07-17T10:01:39;27.50;40.80
70269;DHT22;58514;48.398;-4.274;2022-07-17T10:04:05;27.60;41.90
70269;DHT22;58514;48.398;-4.274;2022-07-17T10:06:31;27.70;42.60
70269;DHT22;58514;48.398;-4.274;2022-07-17T10:08:57;27.90;39.90
70269;DHT22;58514;48.398;-4.274;2022-07-17T10:11:25;28.00;39.90
70269;DHT22;58514;48.398;-4.274;2022-07-17T10:13:55;28.10;40.90
70269;DHT22;58514;48.398;-4.274;2022-07-17T10:16:25;28.30;41.20
70269;DHT22;58514;48.398;-4.274;2022-07-17T10:18:51;28.60;40.70
70269;DHT22;58514;48.398;-4.274;2022-07-17T10:21:22;28.90;39.90
70269;DHT22;58514;48.398;-4.274;2022-07-17T10:26:16;29.80;41.10
70269;DHT22;58514;48.398;-4.274;2022-07-17T10:28:44;30.30;41.50
70269;DHT22;58514;48.398;-4.274;2022-07-17T10:31:23;30.80;41.00
70269;DHT22;58514;48.398;-4.274;2022-07-17T10:34:05;31.30;40.50
70269;DHT22;58514;48.398;-4.274;2022-07-17T10:36:42;31.70;37.20
70269;DHT22;58514;48.398;-4.274;2022-07-17T10:39:13;32.10;38.70
70269;DHT22;58514;48.398;-4.274;2022-07-17T10:41:43;32.40;39.20
70269;DHT22;58514;48.398;-4.274;2022-07-17T10:44:28;32.70;36.60
70269;DHT22;58514;48.398;-4.274;2022-07-17T10:46:55;33.00;37.00
70269;DHT22;58514;48.398;-4.274;2022-07-17T10:49:22;33.30;38.40
70269;DHT22;58514;48.398;-4.274;2022-07-17T10:51:47;33.50;35.40
70269;DHT22;58514;48.398;-4.274;2022-07-17T10:54:13;33.80;35.80
70269;DHT22;58514;48.398;-4.274;2022-07-17T10:56:40;34.10;37.80
70269;DHT22;58514;48.398;-4.274;2022-07-17T10:59:10;34.50;36.80
70269;DHT22;58514;48.398;-4.274;2022-07-17T11:01:36;34.80;35.50
70269;DHT22;58514;48.398;-4.274;2022-07-17T11:04:03;35.00;32.90
70269;DHT22;58514;48.398;-4.274;2022-07-17T11:06:37;35.10;32.70
70269;DHT22;58514;48.398;-4.274;2022-07-17T11:09:06;35.30;35.00
70269;DHT22;58514;48.398;-4.274;2022-07-17T11:11:41;35.40;34.10
70269;DHT22;58514;48.398;-4.274;2022-07-17T11:19:38;35.80;30.80
70269;DHT22;58514;48.398;-4.274;2022-07-17T11:22:10;35.90;30.90
70269;DHT22;58514;48.398;-4.274;2022-07-17T11:24:44;36.00;30.30
70269;DHT22;58514;48.398;-4.274;2022-07-17T11:27:11;36.20;31.60
70269;DHT22;58514;48.398;-4.274;2022-07-17T11:29:42;36.30;31.40
70269;DHT22;58514;48.398;-4.274;2022-07-17T11:32:08;36.40;30.00
70269;DHT22;58514;48.398;-4.274;2022-07-17T11:34:34;36.60;30.00
70269;DHT22;58514;48.398;-4.274;2022-07-17T11:37:02;36.70;29.20
70269;DHT22;58514;48.398;-4.274;2022-07-17T11:39:38;36.90;30.40
70269;DHT22;58514;48.398;-4.274;2022-07-17T11:42:11;37.20;29.70
70269;DHT22;58514;48.398;-4.274;2022-07-17T11:44:37;37.30;28.50
70269;DHT22;58514;48.398;-4.274;2022-07-17T11:47:03;37.50;30.10
70269;DHT22;58514;48.398;-4.274;2022-07-17T11:49:34;37.50;27.50
70269;DHT22;58514;48.398;-4.274;2022-07-17T11:52:08;37.50;28.30
70269;DHT22;58514;48.398;-4.274;2022-07-17T11:57:09;37.80;27.60
70269;DHT22;58514;48.398;-4.274;2022-07-17T11:59:35;37.80;27.70
70269;DHT22;58514;48.398;-4.274;2022-07-17T12:02:18;37.90;28.50
70269;DHT22;58514;48.398;-4.274;2022-07-17T12:04:49;38.00;26.70
70269;DHT22;58514;48.398;-4.274;2022-07-17T12:07:16;38.00;27.00
70269;DHT22;58514;48.398;-4.274;2022-07-17T12:09:42;38.10;28.10
70269;DHT22;58514;48.398;-4.274;2022-07-17T12:12:21;38.30;28.10
70269;DHT22;58514;48.398;-4.274;2022-07-17T12:14:56;38.40;27.20
70269;DHT22;58514;48.398;-4.274;2022-07-17T12:17:23;38.50;27.20
70269;DHT22;58514;48.398;-4.274;2022-07-17T12:19:51;38.70;27.50
70269;DHT22;58514;48.398;-4.274;2022-07-17T12:22:17;39.10;27.80
70269;DHT22;58514;48.398;-4.274;2022-07-17T12:24:45;39.40;27.60
70269;DHT22;58514;48.398;-4.274;2022-07-17T12:27:15;39.70;25.80
70269;DHT22;58514;48.398;-4.274;2022-07-17T12:29:43;39.80;26.00
70269;DHT22;58514;48.398;-4.274;2022-07-17T12:32:11;39.90;25.90
70269;DHT22;58514;48.398;-4.274;2022-07-17T12:34:40;40.00;25.20
70269;DHT22;58514;48.398;-4.274;2022-07-17T12:37:14;40.10;25.90
70269;DHT22;58514;48.398;-4.274;2022-07-17T12:39:40;40.30;26.60
70269;DHT22;58514;48.398;-4.274;2022-07-17T12:42:06;40.70;26.60
70269;DHT22;58514;48.398;-4.274;2022-07-17T12:44:33;40.80;24.40
70269;DHT22;58514;48.398;-4.274;2022-07-17T12:46:59;40.90;25.30
70269;DHT22;58514;48.398;-4.274;2022-07-17T12:49:25;40.90;24.80
70269;DHT22;58514;48.398;-4.274;2022-07-17T12:51:51;40.90;24.70
70269;DHT22;58514;48.398;-4.274;2022-07-17T12:54:17;40.80;24.00
70269;DHT22;58514;48.398;-4.274;2022-07-17T12:56:43;40.50;23.60
70269;DHT22;58514;48.398;-4.274;2022-07-17T12:59:08;40.30;23.80
70269;DHT22;58514;48.398;-4.274;2022-07-17T13:01:35;40.00;23.70
70269;DHT22;58514;48.398;-4.274;2022-07-17T13:04:00;39.60;23.50
70269;DHT22;58514;48.398;-4.274;2022-07-17T13:06:26;39.50;24.40
70269;DHT22;58514;48.398;-4.274;2022-07-17T13:08:52;39.40;24.20
70269;DHT22;58514;48.398;-4.274;2022-07-17T13:11:18;39.20;24.80
70269;DHT22;58514;48.398;-4.274;2022-07-17T13:13:44;39.20;25.00
70269;DHT22;58514;48.398;-4.274;2022-07-17T13:16:11;39.20;25.00
70269;DHT22;58514;48.398;-4.274;2022-07-17T13:18:37;39.10;24.80
70269;DHT22;58514;48.398;-4.274;2022-07-17T13:21:04;38.90;25.00
70269;DHT22;58514;48.398;-4.274;2022-07-17T13:23:31;38.60;24.70
70269;DHT22;58514;48.398;-4.274;2022-07-17T13:25:57;38.40;25.30
70269;DHT22;58514;48.398;-4.274;2022-07-17T13:28:23;38.00;24.60
70269;DHT22;58514;48.398;-4.274;2022-07-17T13:30:48;37.70;24.90
70269;DHT22;58514;48.398;-4.274;2022-07-17T13:33:14;37.50;25.30
70269;DHT22;58514;48.398;-4.274;2022-07-17T13:35:40;37.40;25.70
70269;DHT22;58514;48.398;-4.274;2022-07-17T13:38:06;37.40;26.10
70269;DHT22;58514;48.398;-4.274;2022-07-17T13:40:33;37.40;25.70
70269;DHT22;58514;48.398;-4.274;2022-07-17T13:42:59;37.40;26.10
70269;DHT22;58514;48.398;-4.274;2022-07-17T13:45:26;37.50;26.10
70269;DHT22;58514;48.398;-4.274;2022-07-17T13:47:51;37.60;26.10
70269;DHT22;58514;48.398;-4.274;2022-07-17T13:50:18;37.70;25.70
70269;DHT22;58514;48.398;-4.274;2022-07-17T13:52:43;37.80;25.80
70269;DHT22;58514;48.398;-4.274;2022-07-17T13:55:09;37.90;25.70
70269;DHT22;58514;48.398;-4.274;2022-07-17T13:57:35;37.90;25.70
70269;DHT22;58514;48.398;-4.274;2022-07-17T14:00:01;37.90;25.50
70269;DHT22;58514;48.398;-4.274;2022-07-17T14:02:27;37.80;25.30
70269;DHT22;58514;48.398;-4.274;2022-07-17T14:04:54;37.70;25.00
70269;DHT22;58514;48.398;-4.274;2022-07-17T14:07:20;37.70;25.80
70269;DHT22;58514;48.398;-4.274;2022-07-17T14:09:46;37.80;26.00
70269;DHT22;58514;48.398;-4.274;2022-07-17T14:12:11;37.80;26.00
70269;DHT22;58514;48.398;-4.274;2022-07-17T14:14:37;37.80;26.10
70269;DHT22;58514;48.398;-4.274;2022-07-17T14:17:03;37.80;25.50
70269;DHT22;58514;48.398;-4.274;2022-07-17T14:19:29;37.80;25.20
70269;DHT22;58514;48.398;-4.274;2022-07-17T14:21:54;37.80;25.40
70269;DHT22;58514;48.398;-4.274;2022-07-17T14:24:20;37.70;25.30
70269;DHT22;58514;48.398;-4.274;2022-07-17T14:26:46;37.70;25.50
70269;DHT22;58514;48.398;-4.274;2022-07-17T14:29:14;37.60;25.40
70269;DHT22;58514;48.398;-4.274;2022-07-17T14:31:40;37.70;25.70
70269;DHT22;58514;48.398;-4.274;2022-07-17T14:34:06;37.70;25.80
70269;DHT22;58514;48.398;-4.274;2022-07-17T14:36:31;37.80;25.60
70269;DHT22;58514;48.398;-4.274;2022-07-17T14:38:57;37.60;25.00
70269;DHT22;58514;48.398;-4.274;2022-07-17T14:41:23;37.60;25.30
70269;DHT22;58514;48.398;-4.274;2022-07-17T14:43:52;37.50;25.10
70269;DHT22;58514;48.398;-4.274;2022-07-17T14:46:17;37.50;25.40
70269;DHT22;58514;48.398;-4.274;2022-07-17T14:48:43;37.40;25.60
70269;DHT22;58514;48.398;-4.274;2022-07-17T14:51:09;37.50;26.20
70269;DHT22;58514;48.398;-4.274;2022-07-17T14:53:35;37.60;26.20
70269;DHT22;58514;48.398;-4.274;2022-07-17T14:56:00;37.60;26.00
70269;DHT22;58514;48.398;-4.274;2022-07-17T14:58:26;37.60;25.50
70269;DHT22;58514;48.398;-4.274;2022-07-17T15:00:52;37.60;25.80
70269;DHT22;58514;48.398;-4.274;2022-07-17T15:03:18;37.60;25.90
70269;DHT22;58514;48.398;-4.274;2022-07-17T15:05:43;37.60;26.00
70269;DHT22;58514;48.398;-4.274;2022-07-17T15:08:09;37.60;26.00
70269;DHT22;58514;48.398;-4.274;2022-07-17T15:10:34;37.60;25.70
70269;DHT22;58514;48.398;-4.274;2022-07-17T15:13:00;37.60;25.80
70269;DHT22;58514;48.398;-4.274;2022-07-17T15:15:26;37.50;25.70
70269;DHT22;58514;48.398;-4.274;2022-07-17T15:17:52;37.30;25.20
70269;DHT22;58514;48.398;-4.274;2022-07-17T15:20:18;37.20;25.30
70269;DHT22;58514;48.398;-4.274;2022-07-17T15:22:44;37.20;25.50
70269;DHT22;58514;48.398;-4.274;2022-07-17T15:25:10;37.10;25.70
70269;DHT22;58514;48.398;-4.274;2022-07-17T15:27:35;37.00;26.30
70269;DHT22;58514;48.398;-4.274;2022-07-17T15:30:02;36.90;25.50
70269;DHT22;58514;48.398;-4.274;2022-07-17T15:32:28;36.80;25.80
70269;DHT22;58514;48.398;-4.274;2022-07-17T15:34:54;36.80;25.60
70269;DHT22;58514;48.398;-4.274;2022-07-17T15:37:19;36.70;25.90
70269;DHT22;58514;48.398;-4.274;2022-07-17T15:39:46;36.70;25.90